Denison, Iowa
Current Conditions -  °F | °C
As of 7:55 PM on Friday 31 Oct 2014 (Local Time) from KDNS Reporting Station
Clear Clear  
Wind Chill: -5°   Ceiling: Unl
Heat Index: -2°   Visibility: 10mi
Dew Point: -6°   Wind: 5mph
Humidity: 74%   Direction: 110°ESE
Pressure: 30.44"   Gusts: NA
Location:  42.01°N, 95.35°W
Report Text: KDNS 010055Z AUTO 11004KT 10SM CLR M02/M06 A3044 RMK AO2
Loading
Personal Weather Stations






























Interactive Weather Map
Tropical Storm Tracking
New forecast layout! Learn more

10-Day Weather Forecast

Advertisements
Track Severe Weather on mobile